sensor_id;sensor_type;location;lat;lon;timestamp;P1;durP1;ratioP1;P2;durP2;ratioP2
62616;SDS011;62539;51.190;6.808;2023-05-10T00:01:04;2.00;;;1.67;;
62616;SDS011;62539;51.190;6.808;2023-05-10T00:03:30;2.60;;;1.42;;
62616;SDS011;62539;51.190;6.808;2023-05-10T00:05:55;2.67;;;1.52;;
62616;SDS011;62539;51.190;6.808;2023-05-10T00:08:21;1.85;;;1.60;;
62616;SDS011;62539;51.190;6.808;2023-05-10T00:10:46;1.65;;;1.52;;
62616;SDS011;62539;51.190;6.808;2023-05-10T00:13:12;2.22;;;1.27;;
62616;SDS011;62539;51.190;6.808;2023-05-10T00:15:37;2.35;;;1.73;;
62616;SDS011;62539;51.190;6.808;2023-05-10T00:18:03;2.45;;;1.65;;
62616;SDS011;62539;51.190;6.808;2023-05-10T00:20:28;2.08;;;1.30;;
62616;SDS011;62539;51.190;6.808;2023-05-10T00:22:54;2.05;;;1.60;;
62616;SDS011;62539;51.190;6.808;2023-05-10T00:25:19;2.20;;;1.52;;
62616;SDS011;62539;51.190;6.808;2023-05-10T00:27:46;1.90;;;1.80;;
62616;SDS011;62539;51.190;6.808;2023-05-10T00:30:12;1.60;;;1.50;;
62616;SDS011;62539;51.190;6.808;2023-05-10T00:32:37;1.88;;;1.67;;
62616;SDS011;62539;51.190;6.808;2023-05-10T00:35:03;1.48;;;1.38;;
62616;SDS011;62539;51.190;6.808;2023-05-10T00:37:29;1.70;;;1.60;;
62616;SDS011;62539;51.190;6.808;2023-05-10T00:39:54;1.73;;;1.52;;
62616;SDS011;62539;51.190;6.808;2023-05-10T00:42:19;2.35;;;2.10;;
62616;SDS011;62539;51.190;6.808;2023-05-10T00:44:45;3.20;;;1.67;;
62616;SDS011;62539;51.190;6.808;2023-05-10T00:47:11;1.95;;;1.85;;
62616;SDS011;62539;51.190;6.808;2023-05-10T00:49:37;2.13;;;1.67;;
62616;SDS011;62539;51.190;6.808;2023-05-10T00:52:02;1.60;;;1.50;;
62616;SDS011;62539;51.190;6.808;2023-05-10T00:54:28;1.77;;;1.50;;
62616;SDS011;62539;51.190;6.808;2023-05-10T00:56:55;1.88;;;1.33;;
62616;SDS011;62539;51.190;6.808;2023-05-10T00:59:22;2.20;;;1.85;;
62616;SDS011;62539;51.190;6.808;2023-05-10T01:01:47;1.90;;;1.80;;
62616;SDS011;62539;51.190;6.808;2023-05-10T01:04:13;1.85;;;1.75;;
62616;SDS011;62539;51.190;6.808;2023-05-10T01:06:40;1.75;;;1.30;;
62616;SDS011;62539;51.190;6.808;2023-05-10T01:09:06;1.98;;;1.77;;
62616;SDS011;62539;51.190;6.808;2023-05-10T01:11:35;3.03;;;1.60;;
62616;SDS011;62539;51.190;6.808;2023-05-10T01:14:03;2.25;;;1.70;;
62616;SDS011;62539;51.190;6.808;2023-05-10T01:16:31;1.20;;;1.10;;
62616;SDS011;62539;51.190;6.808;2023-05-10T01:19:02;1.40;;;1.30;;
62616;SDS011;62539;51.190;6.808;2023-05-10T01:21:38;1.65;;;1.20;;
62616;SDS011;62539;51.190;6.808;2023-05-10T01:30:35;2.58;;;1.30;;
62616;SDS011;62539;51.190;6.808;2023-05-10T01:36:39;2.03;;;1.20;;
62616;SDS011;62539;51.190;6.808;2023-05-10T01:39:24;1.55;;;1.40;;
62616;SDS011;62539;51.190;6.808;2023-05-10T01:42:03;1.77;;;1.38;;
62616;SDS011;62539;51.190;6.808;2023-05-10T01:44:40;2.17;;;1.30;;
62616;SDS011;62539;51.190;6.808;2023-05-10T01:47:27;3.35;;;1.23;;
62616;SDS011;62539;51.190;6.808;2023-05-10T01:50:03;1.40;;;1.30;;
62616;SDS011;62539;51.190;6.808;2023-05-10T01:52:36;1.10;;;1.00;;
62616;SDS011;62539;51.190;6.808;2023-05-10T01:55:08;1.60;;;1.40;;
62616;SDS011;62539;51.190;6.808;2023-05-10T01:57:39;1.60;;;1.17;;
62616;SDS011;62539;51.190;6.808;2023-05-10T02:00:08;1.70;;;1.40;;
62616;SDS011;62539;51.190;6.808;2023-05-10T02:02:37;3.30;;;1.77;;
62616;SDS011;62539;51.190;6.808;2023-05-10T02:05:07;2.58;;;1.20;;
62616;SDS011;62539;51.190;6.808;2023-05-10T02:07:37;1.15;;;1.05;;
62616;SDS011;62539;51.190;6.808;2023-05-10T02:10:04;1.30;;;1.20;;
62616;SDS011;62539;51.190;6.808;2023-05-10T02:12:35;1.10;;;1.05;;
62616;SDS011;62539;51.190;6.808;2023-05-10T02:15:06;1.65;;;1.23;;
62616;SDS011;62539;51.190;6.808;2023-05-10T02:17:34;1.45;;;1.00;;
62616;SDS011;62539;51.190;6.808;2023-05-10T02:20:03;1.63;;;1.10;;
62616;SDS011;62539;51.190;6.808;2023-05-10T02:22:31;0.85;;;0.85;;
62616;SDS011;62539;51.190;6.808;2023-05-10T02:24:58;1.27;;;1.17;;
62616;SDS011;62539;51.190;6.808;2023-05-10T02:27:26;1.38;;;1.02;;
62616;SDS011;62539;51.190;6.808;2023-05-10T02:29:54;1.05;;;0.90;;
62616;SDS011;62539;51.190;6.808;2023-05-10T02:32:21;1.17;;;0.93;;
62616;SDS011;62539;51.190;6.808;2023-05-10T02:34:51;1.27;;;1.10;;
62616;SDS011;62539;51.190;6.808;2023-05-10T02:37:20;0.95;;;0.95;;
62616;SDS011;62539;51.190;6.808;2023-05-10T02:39:51;1.30;;;1.20;;
62616;SDS011;62539;51.190;6.808;2023-05-10T02:42:21;1.08;;;0.90;;
62616;SDS011;62539;51.190;6.808;2023-05-10T02:44:53;1.38;;;1.25;;
62616;SDS011;62539;51.190;6.808;2023-05-10T02:47:25;1.70;;;1.27;;
62616;SDS011;62539;51.190;6.808;2023-05-10T02:49:50;1.13;;;1.02;;
62616;SDS011;62539;51.190;6.808;2023-05-10T02:52:16;1.05;;;0.95;;
62616;SDS011;62539;51.190;6.808;2023-05-10T02:54:49;0.82;;;0.77;;
62616;SDS011;62539;51.190;6.808;2023-05-10T02:57:22;0.73;;;0.73;;
62616;SDS011;62539;51.190;6.808;2023-05-10T02:59:53;0.90;;;0.80;;
62616;SDS011;62539;51.190;6.808;2023-05-10T03:02:20;1.25;;;1.08;;
62616;SDS011;62539;51.190;6.808;2023-05-10T03:04:45;0.98;;;0.90;;
62616;SDS011;62539;51.190;6.808;2023-05-10T03:07:11;1.70;;;1.27;;
62616;SDS011;62539;51.190;6.808;2023-05-10T03:09:37;1.05;;;0.93;;
62616;SDS011;62539;51.190;6.808;2023-05-10T03:12:15;1.13;;;1.05;;
62616;SDS011;62539;51.190;6.808;2023-05-10T03:15:17;1.10;;;0.95;;
62616;SDS011;62539;51.190;6.808;2023-05-10T03:18:11;1.00;;;0.90;;
62616;SDS011;62539;51.190;6.808;2023-05-10T03:20:44;1.30;;;0.77;;
62616;SDS011;62539;51.190;6.808;2023-05-10T03:26:08;4.50;;;0.80;;
62616;SDS011;62539;51.190;6.808;2023-05-10T03:28:35;0.75;;;0.70;;
62616;SDS011;62539;51.190;6.808;2023-05-10T03:31:02;1.17;;;0.90;;
62616;SDS011;62539;51.190;6.808;2023-05-10T03:33:30;2.75;;;1.05;;
62616;SDS011;62539;51.190;6.808;2023-05-10T03:35:56;0.88;;;0.88;;
62616;SDS011;62539;51.190;6.808;2023-05-10T03:38:22;1.30;;;1.20;;
62616;SDS011;62539;51.190;6.808;2023-05-10T03:40:47;1.45;;;1.00;;
62616;SDS011;62539;51.190;6.808;2023-05-10T03:43:12;0.80;;;0.80;;
62616;SDS011;62539;51.190;6.808;2023-05-10T03:45:38;1.13;;;0.75;;
62616;SDS011;62539;51.190;6.808;2023-05-10T03:48:03;1.25;;;0.90;;
62616;SDS011;62539;51.190;6.808;2023-05-10T03:50:29;0.65;;;0.65;;
62616;SDS011;62539;51.190;6.808;2023-05-10T03:52:55;1.27;;;0.90;;
62616;SDS011;62539;51.190;6.808;2023-05-10T03:55:20;0.85;;;0.85;;
62616;SDS011;62539;51.190;6.808;2023-05-10T03:57:46;1.10;;;1.00;;
62616;SDS011;62539;51.190;6.808;2023-05-10T04:00:11;0.80;;;0.80;;
62616;SDS011;62539;51.190;6.808;2023-05-10T04:02:37;1.23;;;1.00;;
62616;SDS011;62539;51.190;6.808;2023-05-10T04:05:03;1.00;;;0.85;;
62616;SDS011;62539;51.190;6.808;2023-05-10T04:07:28;0.85;;;0.80;;
62616;SDS011;62539;51.190;6.808;2023-05-10T04:09:54;1.10;;;1.00;;
62616;SDS011;62539;51.190;6.808;2023-05-10T04:12:19;0.80;;;0.80;;
62616;SDS011;62539;51.190;6.808;2023-05-10T04:14:45;2.03;;;1.30;;
62616;SDS011;62539;51.190;6.808;2023-05-10T04:17:10;1.38;;;1.20;;
62616;SDS011;62539;51.190;6.808;2023-05-10T04:19:35;2.55;;;1.60;;
62616;SDS011;62539;51.190;6.808;2023-05-10T04:22:02;1.67;;;1.52;;
62616;SDS011;62539;51.190;6.808;2023-05-10T04:24:27;1.55;;;1.45;;
62616;SDS011;62539;51.190;6.808;2023-05-10T04:26:54;1.52;;;1.40;;
62616;SDS011;62539;51.190;6.808;2023-05-10T04:29:20;2.67;;;1.77;;
62616;SDS011;62539;51.190;6.808;2023-05-10T04:31:46;2.35;;;1.52;;
62616;SDS011;62539;51.190;6.808;2023-05-10T04:34:11;1.23;;;1.13;;
62616;SDS011;62539;51.190;6.808;2023-05-10T04:36:37;3.00;;;1.58;;
62616;SDS011;62539;51.190;6.808;2023-05-10T04:39:02;3.35;;;1.33;;
62616;SDS011;62539;51.190;6.808;2023-05-10T04:41:28;1.48;;;1.35;;
62616;SDS011;62539;51.190;6.808;2023-05-10T04:43:54;3.20;;;1.55;;
62616;SDS011;62539;51.190;6.808;2023-05-10T04:46:20;3.15;;;1.70;;
62616;SDS011;62539;51.190;6.808;2023-05-10T04:48:45;3.88;;;1.95;;
62616;SDS011;62539;51.190;6.808;2023-05-10T04:51:11;2.63;;;1.85;;
62616;SDS011;62539;51.190;6.808;2023-05-10T04:53:37;2.30;;;1.25;;
62616;SDS011;62539;51.190;6.808;2023-05-10T04:56:03;1.92;;;1.75;;
62616;SDS011;62539;51.190;6.808;2023-05-10T04:58:29;4.85;;;1.90;;
62616;SDS011;62539;51.190;6.808;2023-05-10T05:00:54;3.95;;;1.70;;
62616;SDS011;62539;51.190;6.808;2023-05-10T05:03:20;4.90;;;2.50;;
62616;SDS011;62539;51.190;6.808;2023-05-10T05:05:45;3.42;;;2.65;;
62616;SDS011;62539;51.190;6.808;2023-05-10T05:08:11;4.40;;;2.22;;
62616;SDS011;62539;51.190;6.808;2023-05-10T05:10:36;2.90;;;2.20;;
62616;SDS011;62539;51.190;6.808;2023-05-10T05:13:01;5.25;;;2.30;;
62616;SDS011;62539;51.190;6.808;2023-05-10T05:15:27;4.82;;;2.53;;
62616;SDS011;62539;51.190;6.808;2023-05-10T05:17:53;3.95;;;1.80;;
62616;SDS011;62539;51.190;6.808;2023-05-10T05:20:18;5.20;;;2.30;;
62616;SDS011;62539;51.190;6.808;2023-05-10T05:22:44;3.17;;;2.38;;
62616;SDS011;62539;51.190;6.808;2023-05-10T05:25:09;12.20;;;2.30;;
62616;SDS011;62539;51.190;6.808;2023-05-10T05:27:35;8.82;;;2.50;;
62616;SDS011;62539;51.190;6.808;2023-05-10T05:30:00;9.73;;;2.78;;
62616;SDS011;62539;51.190;6.808;2023-05-10T05:32:27;4.85;;;2.55;;
62616;SDS011;62539;51.190;6.808;2023-05-10T05:34:52;2.97;;;1.90;;
62616;SDS011;62539;51.190;6.808;2023-05-10T05:37:18;6.03;;;2.20;;
62616;SDS011;62539;51.190;6.808;2023-05-10T05:39:46;4.38;;;2.55;;
62616;SDS011;62539;51.190;6.808;2023-05-10T05:42:12;4.97;;;1.80;;
62616;SDS011;62539;51.190;6.808;2023-05-10T05:44:39;7.47;;;2.17;;
62616;SDS011;62539;51.190;6.808;2023-05-10T05:47:04;2.90;;;1.90;;
62616;SDS011;62539;51.190;6.808;2023-05-10T05:49:31;7.53;;;2.20;;
62616;SDS011;62539;51.190;6.808;2023-05-10T05:52:00;3.05;;;1.73;;
62616;SDS011;62539;51.190;6.808;2023-05-10T05:54:27;3.40;;;1.52;;
62616;SDS011;62539;51.190;6.808;2023-05-10T05:56:56;3.22;;;1.60;;
62616;SDS011;62539;51.190;6.808;2023-05-10T05:59:23;7.00;;;1.30;;
62616;SDS011;62539;51.190;6.808;2023-05-10T06:01:49;5.38;;;2.13;;
62616;SDS011;62539;51.190;6.808;2023-05-10T06:04:14;3.97;;;2.00;;
62616;SDS011;62539;51.190;6.808;2023-05-10T06:06:40;4.15;;;1.67;;
62616;SDS011;62539;51.190;6.808;2023-05-10T06:09:07;3.92;;;1.80;;
62616;SDS011;62539;51.190;6.808;2023-05-10T06:11:32;2.70;;;1.40;;
62616;SDS011;62539;51.190;6.808;2023-05-10T06:13:58;3.72;;;1.67;;
62616;SDS011;62539;51.190;6.808;2023-05-10T06:16:24;1.80;;;1.45;;
62616;SDS011;62539;51.190;6.808;2023-05-10T06:18:49;5.07;;;1.95;;
62616;SDS011;62539;51.190;6.808;2023-05-10T06:21:15;3.60;;;1.63;;
62616;SDS011;62539;51.190;6.808;2023-05-10T06:23:41;4.60;;;1.60;;
62616;SDS011;62539;51.190;6.808;2023-05-10T06:26:07;2.50;;;1.60;;
62616;SDS011;62539;51.190;6.808;2023-05-10T06:28:32;4.22;;;1.77;;
62616;SDS011;62539;51.190;6.808;2023-05-10T06:30:58;2.90;;;1.33;;
62616;SDS011;62539;51.190;6.808;2023-05-10T06:33:24;4.00;;;1.80;;
62616;SDS011;62539;51.190;6.808;2023-05-10T06:35:49;6.45;;;1.92;;
62616;SDS011;62539;51.190;6.808;2023-05-10T06:38:15;4.10;;;1.70;;
62616;SDS011;62539;51.190;6.808;2023-05-10T06:40:41;2.53;;;1.35;;
62616;SDS011;62539;51.190;6.808;2023-05-10T06:43:07;4.80;;;1.80;;
62616;SDS011;62539;51.190;6.808;2023-05-10T06:45:33;3.13;;;1.77;;
62616;SDS011;62539;51.190;6.808;2023-05-10T06:47:58;3.78;;;1.58;;
62616;SDS011;62539;51.190;6.808;2023-05-10T06:50:23;2.30;;;1.65;;
62616;SDS011;62539;51.190;6.808;2023-05-10T06:52:49;2.83;;;1.60;;
62616;SDS011;62539;51.190;6.808;2023-05-10T06:55:14;2.90;;;1.77;;
62616;SDS011;62539;51.190;6.808;2023-05-10T06:57:40;2.13;;;1.55;;
62616;SDS011;62539;51.190;6.808;2023-05-10T07:00:05;4.25;;;2.50;;
62616;SDS011;62539;51.190;6.808;2023-05-10T07:02:31;4.10;;;2.13;;
62616;SDS011;62539;51.190;6.808;2023-05-10T07:04:57;4.30;;;1.60;;
62616;SDS011;62539;51.190;6.808;2023-05-10T07:07:23;2.53;;;2.10;;
62616;SDS011;62539;51.190;6.808;2023-05-10T07:09:48;1.95;;;1.50;;
62616;SDS011;62539;51.190;6.808;2023-05-10T07:12:15;2.67;;;1.48;;
62616;SDS011;62539;51.190;6.808;2023-05-10T07:14:40;2.58;;;1.80;;
62616;SDS011;62539;51.190;6.808;2023-05-10T07:17:05;2.97;;;2.15;;
62616;SDS011;62539;51.190;6.808;2023-05-10T07:19:31;2.45;;;1.52;;
62616;SDS011;62539;51.190;6.808;2023-05-10T07:21:57;3.33;;;1.70;;
62616;SDS011;62539;51.190;6.808;2023-05-10T07:24:23;4.57;;;1.55;;
62616;SDS011;62539;51.190;6.808;2023-05-10T07:26:49;3.15;;;1.60;;
62616;SDS011;62539;51.190;6.808;2023-05-10T07:29:14;3.10;;;1.90;;
62616;SDS011;62539;51.190;6.808;2023-05-10T07:31:40;3.80;;;1.48;;
62616;SDS011;62539;51.190;6.808;2023-05-10T07:34:07;1.73;;;1.45;;
62616;SDS011;62539;51.190;6.808;2023-05-10T07:36:33;3.13;;;1.33;;
62616;SDS011;62539;51.190;6.808;2023-05-10T07:38:59;2.70;;;1.63;;
62616;SDS011;62539;51.190;6.808;2023-05-10T07:41:24;1.42;;;1.33;;
62616;SDS011;62539;51.190;6.808;2023-05-10T07:43:50;4.10;;;2.35;;
62616;SDS011;62539;51.190;6.808;2023-05-10T07:46:15;1.95;;;1.50;;
62616;SDS011;62539;51.190;6.808;2023-05-10T07:48:41;2.08;;;1.52;;
62616;SDS011;62539;51.190;6.808;2023-05-10T07:51:06;1.88;;;1.25;;
62616;SDS011;62539;51.190;6.808;2023-05-10T07:53:34;1.85;;;1.60;;
62616;SDS011;62539;51.190;6.808;2023-05-10T07:56:19;2.00;;;1.20;;
62616;SDS011;62539;51.190;6.808;2023-05-10T07:58:57;2.05;;;1.50;;
62616;SDS011;62539;51.190;6.808;2023-05-10T08:01:24;5.32;;;2.03;;
62616;SDS011;62539;51.190;6.808;2023-05-10T08:03:50;4.30;;;2.67;;
62616;SDS011;62539;51.190;6.808;2023-05-10T08:06:17;4.15;;;2.33;;
62616;SDS011;62539;51.190;6.808;2023-05-10T08:08:43;4.47;;;3.55;;
62616;SDS011;62539;51.190;6.808;2023-05-10T08:11:14;4.25;;;2.65;;
62616;SDS011;62539;51.190;6.808;2023-05-10T08:13:43;5.28;;;2.30;;
62616;SDS011;62539;51.190;6.808;2023-05-10T08:16:10;6.60;;;4.00;;
62616;SDS011;62539;51.190;6.808;2023-05-10T08:18:36;6.18;;;3.47;;
62616;SDS011;62539;51.190;6.808;2023-05-10T08:21:03;4.55;;;3.00;;
62616;SDS011;62539;51.190;6.808;2023-05-10T08:23:29;3.63;;;2.65;;
62616;SDS011;62539;51.190;6.808;2023-05-10T08:25:54;6.32;;;3.50;;
62616;SDS011;62539;51.190;6.808;2023-05-10T08:28:19;3.00;;;2.22;;
62616;SDS011;62539;51.190;6.808;2023-05-10T08:30:45;6.45;;;2.20;;
62616;SDS011;62539;51.190;6.808;2023-05-10T08:33:10;2.90;;;2.35;;
62616;SDS011;62539;51.190;6.808;2023-05-10T08:35:36;4.18;;;2.70;;
62616;SDS011;62539;51.190;6.808;2023-05-10T08:38:01;5.63;;;2.72;;
62616;SDS011;62539;51.190;6.808;2023-05-10T08:40:27;4.32;;;2.35;;
62616;SDS011;62539;51.190;6.808;2023-05-10T08:42:58;5.80;;;2.53;;
62616;SDS011;62539;51.190;6.808;2023-05-10T08:45:31;3.05;;;2.30;;
62616;SDS011;62539;51.190;6.808;2023-05-10T08:48:01;3.90;;;2.53;;
62616;SDS011;62539;51.190;6.808;2023-05-10T08:50:29;5.15;;;3.08;;
62616;SDS011;62539;51.190;6.808;2023-05-10T08:52:57;8.40;;;4.13;;
62616;SDS011;62539;51.190;6.808;2023-05-10T08:55:25;4.60;;;2.28;;
62616;SDS011;62539;51.190;6.808;2023-05-10T08:57:52;6.93;;;3.00;;
62616;SDS011;62539;51.190;6.808;2023-05-10T09:00:18;5.10;;;2.97;;
62616;SDS011;62539;51.190;6.808;2023-05-10T09:02:44;5.90;;;2.40;;
62616;SDS011;62539;51.190;6.808;2023-05-10T09:05:13;3.47;;;2.13;;
62616;SDS011;62539;51.190;6.808;2023-05-10T09:07:40;4.50;;;2.88;;
62616;SDS011;62539;51.190;6.808;2023-05-10T09:10:06;4.85;;;2.67;;
62616;SDS011;62539;51.190;6.808;2023-05-10T09:12:34;6.43;;;3.08;;
62616;SDS011;62539;51.190;6.808;2023-05-10T09:15:00;2.30;;;2.00;;
62616;SDS011;62539;51.190;6.808;2023-05-10T09:17:28;5.55;;;2.45;;
62616;SDS011;62539;51.190;6.808;2023-05-10T09:20:00;3.17;;;2.53;;
62616;SDS011;62539;51.190;6.808;2023-05-10T09:22:30;6.95;;;2.25;;
62616;SDS011;62539;51.190;6.808;2023-05-10T09:25:13;4.57;;;2.88;;
62616;SDS011;62539;51.190;6.808;2023-05-10T09:27:41;3.28;;;2.08;;
62616;SDS011;62539;51.190;6.808;2023-05-10T09:30:15;4.43;;;2.63;;
62616;SDS011;62539;51.190;6.808;2023-05-10T09:32:48;5.68;;;2.72;;
62616;SDS011;62539;51.190;6.808;2023-05-10T09:35:16;2.90;;;2.28;;
62616;SDS011;62539;51.190;6.808;2023-05-10T09:37:45;3.08;;;2.38;;
62616;SDS011;62539;51.190;6.808;2023-05-10T09:40:16;2.25;;;2.05;;
62616;SDS011;62539;51.190;6.808;2023-05-10T09:42:51;5.30;;;2.80;;
62616;SDS011;62539;51.190;6.808;2023-05-10T09:45:22;2.47;;;2.13;;
62616;SDS011;62539;51.190;6.808;2023-05-10T09:47:51;5.63;;;2.58;;
62616;SDS011;62539;51.190;6.808;2023-05-10T09:50:17;3.03;;;2.28;;
62616;SDS011;62539;51.190;6.808;2023-05-10T09:52:47;4.07;;;2.92;;
62616;SDS011;62539;51.190;6.808;2023-05-10T09:55:19;4.88;;;2.80;;
62616;SDS011;62539;51.190;6.808;2023-05-10T09:57:48;2.25;;;1.92;;
62616;SDS011;62539;51.190;6.808;2023-05-10T10:00:22;2.80;;;2.22;;
62616;SDS011;62539;51.190;6.808;2023-05-10T10:02:55;4.53;;;3.00;;
62616;SDS011;62539;51.190;6.808;2023-05-10T10:05:32;6.70;;;3.30;;
62616;SDS011;62539;51.190;6.808;2023-05-10T10:08:02;2.35;;;1.90;;
62616;SDS011;62539;51.190;6.808;2023-05-10T10:10:29;3.92;;;2.75;;
62616;SDS011;62539;51.190;6.808;2023-05-10T10:12:57;4.05;;;2.97;;
62616;SDS011;62539;51.190;6.808;2023-05-10T10:15:23;4.30;;;2.60;;
62616;SDS011;62539;51.190;6.808;2023-05-10T10:17:50;3.20;;;2.83;;
62616;SDS011;62539;51.190;6.808;2023-05-10T10:20:17;2.63;;;2.17;;
62616;SDS011;62539;51.190;6.808;2023-05-10T10:22:45;5.20;;;2.60;;
62616;SDS011;62539;51.190;6.808;2023-05-10T10:25:12;4.28;;;2.47;;
62616;SDS011;62539;51.190;6.808;2023-05-10T10:36:20;2.15;;;1.92;;
62616;SDS011;62539;51.190;6.808;2023-05-10T10:41:26;5.03;;;3.00;;
62616;SDS011;62539;51.190;6.808;2023-05-10T10:52:26;3.22;;;2.10;;
62616;SDS011;62539;51.190;6.808;2023-05-10T10:55:01;2.90;;;1.92;;
62616;SDS011;62539;51.190;6.808;2023-05-10T10:57:43;2.35;;;1.90;;
62616;SDS011;62539;51.190;6.808;2023-05-10T11:00:23;2.72;;;2.03;;
62616;SDS011;62539;51.190;6.808;2023-05-10T11:05:41;2.85;;;2.20;;
62616;SDS011;62539;51.190;6.808;2023-05-10T11:13:28;3.38;;;2.47;;
62616;SDS011;62539;51.190;6.808;2023-05-10T11:15:56;2.97;;;2.10;;
62616;SDS011;62539;51.190;6.808;2023-05-10T11:18:27;3.58;;;2.63;;
62616;SDS011;62539;51.190;6.808;2023-05-10T11:20:59;3.90;;;3.08;;
62616;SDS011;62539;51.190;6.808;2023-05-10T11:23:47;4.32;;;3.20;;
62616;SDS011;62539;51.190;6.808;2023-05-10T11:26:30;4.25;;;3.30;;
62616;SDS011;62539;51.190;6.808;2023-05-10T11:28:59;3.13;;;2.28;;
62616;SDS011;62539;51.190;6.808;2023-05-10T11:31:26;3.70;;;2.60;;
62616;SDS011;62539;51.190;6.808;2023-05-10T11:33:56;3.58;;;2.95;;
62616;SDS011;62539;51.190;6.808;2023-05-10T11:36:25;3.15;;;2.40;;
62616;SDS011;62539;51.190;6.808;2023-05-10T11:38:54;2.08;;;1.70;;
62616;SDS011;62539;51.190;6.808;2023-05-10T11:41:21;2.72;;;2.00;;
62616;SDS011;62539;51.190;6.808;2023-05-10T11:43:50;3.17;;;1.88;;
62616;SDS011;62539;51.190;6.808;2023-05-10T11:46:18;4.53;;;2.78;;
62616;SDS011;62539;51.190;6.808;2023-05-10T11:48:46;3.33;;;2.80;;
62616;SDS011;62539;51.190;6.808;2023-05-10T11:51:20;6.45;;;4.07;;
62616;SDS011;62539;51.190;6.808;2023-05-10T11:53:48;2.63;;;1.90;;
62616;SDS011;62539;51.190;6.808;2023-05-10T11:56:20;2.38;;;1.92;;
62616;SDS011;62539;51.190;6.808;2023-05-10T11:58:51;2.65;;;2.08;;
62616;SDS011;62539;51.190;6.808;2023-05-10T12:01:20;2.63;;;2.03;;
62616;SDS011;62539;51.190;6.808;2023-05-10T12:03:46;2.13;;;1.73;;
62616;SDS011;62539;51.190;6.808;2023-05-10T12:06:12;2.63;;;2.25;;
62616;SDS011;62539;51.190;6.808;2023-05-10T12:08:43;2.08;;;1.88;;
62616;SDS011;62539;51.190;6.808;2023-05-10T12:11:14;2.05;;;1.85;;
62616;SDS011;62539;51.190;6.808;2023-05-10T12:13:41;2.70;;;2.05;;
62616;SDS011;62539;51.190;6.808;2023-05-10T12:16:18;3.67;;;2.17;;
62616;SDS011;62539;51.190;6.808;2023-05-10T12:18:52;2.83;;;1.85;;
62616;SDS011;62539;51.190;6.808;2023-05-10T12:21:21;3.25;;;2.22;;
62616;SDS011;62539;51.190;6.808;2023-05-10T12:23:48;2.72;;;2.20;;
62616;SDS011;62539;51.190;6.808;2023-05-10T12:26:15;2.58;;;2.00;;
62616;SDS011;62539;51.190;6.808;2023-05-10T12:28:41;3.22;;;2.58;;
62616;SDS011;62539;51.190;6.808;2023-05-10T12:31:07;2.78;;;2.40;;
62616;SDS011;62539;51.190;6.808;2023-05-10T12:33:39;3.35;;;2.55;;
62616;SDS011;62539;51.190;6.808;2023-05-10T12:36:11;2.85;;;2.22;;
62616;SDS011;62539;51.190;6.808;2023-05-10T12:38:39;3.20;;;2.90;;
62616;SDS011;62539;51.190;6.808;2023-05-10T12:41:15;4.00;;;2.95;;
62616;SDS011;62539;51.190;6.808;2023-05-10T12:43:42;3.88;;;2.72;;
62616;SDS011;62539;51.190;6.808;2023-05-10T12:46:09;2.45;;;2.10;;
62616;SDS011;62539;51.190;6.808;2023-05-10T12:48:38;2.97;;;2.60;;
62616;SDS011;62539;51.190;6.808;2023-05-10T12:51:05;2.85;;;2.42;;
62616;SDS011;62539;51.190;6.808;2023-05-10T12:53:34;2.63;;;2.17;;
62616;SDS011;62539;51.190;6.808;2023-05-10T12:56:01;2.95;;;2.33;;
62616;SDS011;62539;51.190;6.808;2023-05-10T12:58:26;2.90;;;2.45;;
62616;SDS011;62539;51.190;6.808;2023-05-10T13:00:52;3.97;;;2.50;;
62616;SDS011;62539;51.190;6.808;2023-05-10T13:03:18;3.75;;;2.42;;
62616;SDS011;62539;51.190;6.808;2023-05-10T13:05:43;3.85;;;3.00;;
62616;SDS011;62539;51.190;6.808;2023-05-10T13:08:09;7.15;;;5.05;;
62616;SDS011;62539;51.190;6.808;2023-05-10T13:10:34;3.65;;;3.22;;
62616;SDS011;62539;51.190;6.808;2023-05-10T13:13:00;3.05;;;2.72;;
62616;SDS011;62539;51.190;6.808;2023-05-10T13:15:26;2.92;;;2.47;;
62616;SDS011;62539;51.190;6.808;2023-05-10T13:17:52;4.00;;;3.22;;
62616;SDS011;62539;51.190;6.808;2023-05-10T13:20:18;4.28;;;3.22;;
62616;SDS011;62539;51.190;6.808;2023-05-10T13:22:44;3.75;;;2.80;;
62616;SDS011;62539;51.190;6.808;2023-05-10T13:25:10;3.08;;;2.78;;
62616;SDS011;62539;51.190;6.808;2023-05-10T13:27:36;4.55;;;3.03;;
62616;SDS011;62539;51.190;6.808;2023-05-10T13:30:05;3.75;;;2.90;;
62616;SDS011;62539;51.190;6.808;2023-05-10T13:32:34;3.97;;;2.95;;
62616;SDS011;62539;51.190;6.808;2023-05-10T13:35:00;5.00;;;3.22;;
62616;SDS011;62539;51.190;6.808;2023-05-10T13:37:28;4.20;;;3.00;;
62616;SDS011;62539;51.190;6.808;2023-05-10T13:39:54;5.55;;;2.63;;
62616;SDS011;62539;51.190;6.808;2023-05-10T13:42:19;5.15;;;3.42;;
62616;SDS011;62539;51.190;6.808;2023-05-10T13:44:45;4.05;;;3.08;;
62616;SDS011;62539;51.190;6.808;2023-05-10T13:47:10;3.42;;;2.80;;
62616;SDS011;62539;51.190;6.808;2023-05-10T13:49:36;3.50;;;3.20;;
62616;SDS011;62539;51.190;6.808;2023-05-10T13:52:01;6.20;;;2.90;;
62616;SDS011;62539;51.190;6.808;2023-05-10T13:54:31;3.45;;;2.75;;
62616;SDS011;62539;51.190;6.808;2023-05-10T13:57:00;3.33;;;2.90;;
62616;SDS011;62539;51.190;6.808;2023-05-10T13:59:26;3.95;;;3.00;;
62616;SDS011;62539;51.190;6.808;2023-05-10T14:01:51;4.30;;;3.08;;
62616;SDS011;62539;51.190;6.808;2023-05-10T14:04:17;4.95;;;2.95;;
62616;SDS011;62539;51.190;6.808;2023-05-10T14:06:42;3.88;;;3.15;;
62616;SDS011;62539;51.190;6.808;2023-05-10T14:09:08;3.00;;;2.70;;
62616;SDS011;62539;51.190;6.808;2023-05-10T14:11:33;3.67;;;3.00;;
62616;SDS011;62539;51.190;6.808;2023-05-10T14:13:59;3.50;;;3.00;;
62616;SDS011;62539;51.190;6.808;2023-05-10T14:16:24;4.20;;;3.00;;
62616;SDS011;62539;51.190;6.808;2023-05-10T14:18:49;3.20;;;2.90;;
62616;SDS011;62539;51.190;6.808;2023-05-10T14:21:15;4.00;;;3.00;;
62616;SDS011;62539;51.190;6.808;2023-05-10T14:23:40;6.68;;;2.83;;
62616;SDS011;62539;51.190;6.808;2023-05-10T14:26:06;3.65;;;2.88;;
62616;SDS011;62539;51.190;6.808;2023-05-10T14:28:31;3.95;;;2.97;;
62616;SDS011;62539;51.190;6.808;2023-05-10T14:30:57;4.40;;;3.22;;
62616;SDS011;62539;51.190;6.808;2023-05-10T14:33:23;5.20;;;3.92;;
62616;SDS011;62539;51.190;6.808;2023-05-10T14:35:49;3.17;;;2.78;;
62616;SDS011;62539;51.190;6.808;2023-05-10T14:38:14;3.15;;;2.63;;
62616;SDS011;62539;51.190;6.808;2023-05-10T14:40:40;3.63;;;2.47;;
62616;SDS011;62539;51.190;6.808;2023-05-10T14:43:05;3.97;;;2.63;;
62616;SDS011;62539;51.190;6.808;2023-05-10T14:45:31;4.10;;;2.90;;
62616;SDS011;62539;51.190;6.808;2023-05-10T14:47:57;5.10;;;3.05;;
62616;SDS011;62539;51.190;6.808;2023-05-10T14:50:23;3.97;;;2.80;;
62616;SDS011;62539;51.190;6.808;2023-05-10T14:52:48;3.92;;;2.78;;
62616;SDS011;62539;51.190;6.808;2023-05-10T14:55:15;3.10;;;2.40;;
62616;SDS011;62539;51.190;6.808;2023-05-10T14:57:40;2.75;;;2.40;;
62616;SDS011;62539;51.190;6.808;2023-05-10T15:00:07;4.50;;;2.75;;
62616;SDS011;62539;51.190;6.808;2023-05-10T15:02:34;2.85;;;2.50;;
62616;SDS011;62539;51.190;6.808;2023-05-10T15:04:59;3.60;;;2.58;;
62616;SDS011;62539;51.190;6.808;2023-05-10T15:07:24;2.95;;;2.75;;
62616;SDS011;62539;51.190;6.808;2023-05-10T15:09:50;4.35;;;2.25;;
62616;SDS011;62539;51.190;6.808;2023-05-10T15:12:16;6.50;;;2.60;;
62616;SDS011;62539;51.190;6.808;2023-05-10T15:14:43;4.28;;;2.92;;
62616;SDS011;62539;51.190;6.808;2023-05-10T15:17:08;2.80;;;2.50;;
62616;SDS011;62539;51.190;6.808;2023-05-10T15:19:35;3.10;;;2.70;;
62616;SDS011;62539;51.190;6.808;2023-05-10T15:22:00;2.50;;;2.30;;
62616;SDS011;62539;51.190;6.808;2023-05-10T15:24:27;3.75;;;2.80;;
62616;SDS011;62539;51.190;6.808;2023-05-10T15:26:52;4.25;;;2.70;;
62616;SDS011;62539;51.190;6.808;2023-05-10T15:29:17;3.45;;;2.65;;
62616;SDS011;62539;51.190;6.808;2023-05-10T15:31:44;3.03;;;2.40;;